createdAt,value
2018-11-02T00:00:37.127Z,9.30
2018-11-02T00:03:05.950Z,9.30
2018-11-02T00:05:33.855Z,9.30
2018-11-02T00:08:17.209Z,9.30
2018-11-02T00:11:01.682Z,9.40
2018-11-02T00:13:29.606Z,9.40
2018-11-02T00:15:57.230Z,9.40
2018-11-02T00:18:24.851Z,9.40
2018-11-02T00:20:52.806Z,9.40
2018-11-02T00:23:20.463Z,9.40
2018-11-02T00:25:48.130Z,9.40
2018-11-02T00:28:16.020Z,9.40
2018-11-02T00:30:43.683Z,9.40
2018-11-02T00:33:11.318Z,9.40
2018-11-02T00:35:38.911Z,9.30
2018-11-02T00:38:06.451Z,9.30
2018-11-02T00:40:34.068Z,9.30
2018-11-02T00:43:01.774Z,9.30
2018-11-02T00:45:29.392Z,9.20
2018-11-02T00:47:56.974Z,9.30
2018-11-02T00:50:24.538Z,9.20
2018-11-02T00:52:52.136Z,9.20
2018-11-02T00:55:19.689Z,9.20
2018-11-02T00:57:47.492Z,9.30
2018-11-02T01:00:15.243Z,9.30
2018-11-02T01:02:43.669Z,9.30
2018-11-02T01:05:11.298Z,9.30
2018-11-02T01:07:39.031Z,9.30
2018-11-02T01:10:06.827Z,9.30
2018-11-02T01:12:35.139Z,9.30
2018-11-02T01:15:02.788Z,9.30
2018-11-02T01:17:30.400Z,9.40
2018-11-02T01:19:58.085Z,9.40
2018-11-02T01:22:25.679Z,9.40
2018-11-02T01:24:53.288Z,9.40
2018-11-02T01:27:20.943Z,9.40
2018-11-02T01:29:48.523Z,9.40
2018-11-02T01:32:16.171Z,9.40
2018-11-02T01:34:43.862Z,9.40
2018-11-02T01:37:11.763Z,9.40
2018-11-02T01:39:39.700Z,9.40
2018-11-02T01:42:07.628Z,9.40
2018-11-02T01:44:35.203Z,9.40
2018-11-02T01:47:02.805Z,9.40
2018-11-02T01:49:30.451Z,9.50
2018-11-02T01:51:58.020Z,9.50
2018-11-02T01:54:25.616Z,9.50
2018-11-02T01:56:53.210Z,9.50
2018-11-02T01:59:20.780Z,9.50
2018-11-02T02:01:48.530Z,9.50
2018-11-02T02:04:16.263Z,9.50
2018-11-02T02:06:43.835Z,9.50
2018-11-02T02:09:14.127Z,9.60
2018-11-02T02:11:41.695Z,9.50
2018-11-02T02:14:09.243Z,9.60
2018-11-02T02:16:37.007Z,9.60
2018-11-02T02:19:05.159Z,9.60
2018-11-02T02:21:32.771Z,9.70
2018-11-02T02:24:00.374Z,9.70
2018-11-02T02:26:27.952Z,9.70
2018-11-02T02:28:55.905Z,9.70
2018-11-02T02:31:23.479Z,9.70
2018-11-02T02:33:50.967Z,9.70
2018-11-02T02:36:18.599Z,9.70
2018-11-02T02:38:46.391Z,9.70
2018-11-02T02:41:14.003Z,9.80
2018-11-02T02:43:41.676Z,9.80
2018-11-02T02:46:09.344Z,9.80
2018-11-02T02:48:36.940Z,9.80
2018-11-02T02:51:05.401Z,9.80
2018-11-02T02:53:33.027Z,9.90
2018-11-02T02:56:00.671Z,9.90
2018-11-02T02:58:28.208Z,9.90
2018-11-02T03:00:55.808Z,9.90
2018-11-02T03:03:23.415Z,9.90
2018-11-02T03:05:51.043Z,10.00
2018-11-02T03:08:18.689Z,10.00
2018-11-02T03:10:46.382Z,10.00
2018-11-02T03:13:13.791Z,10.00
2018-11-02T03:15:41.353Z,10.10
2018-11-02T03:18:09.043Z,10.00
2018-11-02T03:20:36.561Z,10.10
2018-11-02T03:23:04.766Z,10.10
2018-11-02T03:25:32.449Z,10.10
2018-11-02T03:27:59.980Z,10.10
2018-11-02T03:30:27.534Z,10.10
2018-11-02T03:32:55.048Z,10.10
2018-11-02T03:35:22.639Z,10.10
2018-11-02T03:37:50.173Z,10.10
2018-11-02T03:40:17.974Z,10.10
2018-11-02T03:42:45.663Z,10.10
2018-11-02T03:45:13.619Z,10.10
2018-11-02T03:47:41.177Z,10.10
2018-11-02T03:50:10.471Z,10.10
2018-11-02T03:52:38.290Z,10.10
2018-11-02T03:55:06.166Z,10.10
2018-11-02T03:57:33.710Z,10.20
2018-11-02T04:00:01.359Z,10.20
2018-11-02T04:02:29.079Z,10.20
2018-11-02T04:04:56.631Z,10.20
2018-11-02T04:07:24.227Z,10.20
2018-11-02T04:09:51.847Z,10.20
2018-11-02T04:12:19.473Z,10.20
2018-11-02T04:14:47.047Z,10.20
2018-11-02T04:17:14.599Z,10.20
2018-11-02T04:19:42.199Z,10.20
2018-11-02T04:22:10.003Z,10.30
2018-11-02T04:24:37.664Z,10.20
2018-11-02T04:27:06.159Z,10.30
2018-11-02T04:29:33.806Z,10.30
2018-11-02T04:32:01.395Z,10.20
2018-11-02T04:34:28.958Z,10.30
2018-11-02T04:36:56.547Z,10.30
2018-11-02T04:39:24.253Z,10.30
2018-11-02T04:41:51.842Z,10.30
2018-11-02T04:44:19.394Z,10.30
2018-11-02T04:46:47.008Z,10.30
2018-11-02T04:49:14.935Z,10.40
2018-11-02T04:51:42.708Z,10.30
2018-11-02T04:54:10.243Z,10.40
2018-11-02T04:56:37.887Z,10.40
2018-11-02T04:59:05.518Z,10.40
2018-11-02T05:01:33.109Z,10.40
2018-11-02T05:04:00.647Z,10.40
2018-11-02T05:06:28.358Z,10.40
2018-11-02T05:08:55.990Z,10.40
2018-11-02T05:11:23.827Z,10.40
2018-11-02T05:13:51.329Z,10.40
2018-11-02T05:16:18.959Z,10.40
2018-11-02T05:18:46.508Z,10.40
2018-11-02T05:21:14.219Z,10.40
2018-11-02T05:23:41.780Z,10.40
2018-11-02T05:26:09.452Z,10.40
2018-11-02T05:28:37.018Z,10.50
2018-11-02T05:31:05.128Z,10.40
2018-11-02T05:33:32.647Z,10.40
2018-11-02T05:36:00.313Z,10.40
2018-11-02T05:38:27.962Z,10.40
2018-11-02T05:40:55.540Z,10.40
2018-11-02T05:43:23.667Z,10.40
2018-11-02T05:45:51.349Z,10.40
2018-11-02T05:48:20.194Z,10.50
2018-11-02T05:50:47.947Z,10.50
2018-11-02T05:53:15.689Z,10.50
2018-11-02T05:55:43.336Z,10.50
2018-11-02T05:58:11.133Z,10.50
2018-11-02T06:00:38.860Z,10.50
2018-11-02T06:03:06.552Z,10.50
2018-11-02T06:05:34.093Z,10.50
2018-11-02T06:08:01.762Z,10.50
2018-11-02T06:10:29.250Z,10.50
2018-11-02T06:12:56.820Z,10.50
2018-11-02T06:15:24.422Z,10.50
2018-11-02T06:17:52.122Z,10.50
2018-11-02T06:20:19.869Z,10.50
2018-11-02T06:22:47.497Z,10.50
2018-11-02T06:25:15.138Z,10.50
2018-11-02T06:27:42.740Z,10.50
2018-11-02T06:30:10.714Z,10.50
2018-11-02T06:32:38.415Z,10.50
2018-11-02T06:35:07.166Z,10.50
2018-11-02T06:37:35.182Z,10.50
2018-11-02T06:40:02.873Z,10.50
2018-11-02T06:42:30.656Z,10.50
2018-11-02T06:44:58.328Z,10.50
2018-11-02T06:47:26.142Z,10.50
2018-11-02T06:49:53.840Z,10.50
2018-11-02T06:52:21.376Z,10.50
2018-11-02T06:54:49.266Z,10.50
2018-11-02T06:57:16.953Z,10.60
2018-11-02T06:59:44.871Z,10.60
2018-11-02T07:02:12.244Z,10.60
2018-11-02T07:04:39.782Z,10.60
2018-11-02T07:07:07.810Z,10.60
2018-11-02T07:09:35.771Z,10.70
2018-11-02T07:12:03.961Z,10.70
2018-11-02T07:14:31.554Z,10.70
2018-11-02T07:16:59.259Z,10.70
2018-11-02T07:19:26.820Z,10.70
2018-11-02T07:21:54.510Z,10.70
2018-11-02T07:24:22.296Z,10.70
2018-11-02T07:26:49.828Z,10.70
2018-11-02T07:29:17.438Z,10.70
2018-11-02T07:31:44.978Z,10.70
2018-11-02T07:34:12.992Z,10.70
2018-11-02T07:36:40.523Z,10.70
2018-11-02T07:39:09.229Z,10.80
2018-11-02T07:41:36.728Z,10.80
2018-11-02T07:44:04.676Z,10.80
2018-11-02T07:46:32.532Z,10.80
2018-11-02T07:49:00.126Z,10.90
2018-11-02T07:51:27.753Z,10.90
2018-11-02T07:53:55.653Z,11.00
2018-11-02T07:56:23.345Z,11.00
2018-11-02T07:58:50.958Z,11.00
2018-11-02T08:01:18.543Z,11.00
2018-11-02T08:03:46.349Z,11.00
2018-11-02T08:06:13.964Z,11.00
2018-11-02T08:08:41.527Z,11.00
2018-11-02T08:11:09.233Z,11.00
2018-11-02T08:13:36.767Z,11.00
2018-11-02T08:16:04.508Z,11.10
2018-11-02T08:18:32.055Z,11.10
2018-11-02T08:20:59.676Z,11.10
2018-11-02T08:23:27.390Z,11.10
2018-11-02T08:25:55.236Z,11.10
2018-11-02T08:28:22.985Z,11.20
2018-11-02T08:30:50.542Z,11.20
2018-11-02T08:33:18.159Z,11.20
2018-11-02T08:35:46.227Z,11.30
2018-11-02T08:38:13.862Z,11.30
2018-11-02T08:40:41.504Z,11.30
2018-11-02T08:43:09.172Z,11.40
2018-11-02T08:45:36.855Z,11.40
2018-11-02T08:48:04.869Z,11.40
2018-11-02T08:50:32.484Z,11.40
2018-11-02T08:55:34.483Z,11.40
2018-11-02T08:58:02.276Z,11.30
2018-11-02T09:00:29.736Z,11.30
2018-11-02T09:02:57.398Z,11.30
2018-11-02T09:05:24.950Z,11.20
2018-11-02T09:07:52.667Z,11.30
2018-11-02T09:10:20.318Z,11.20
2018-11-02T09:12:48.129Z,11.20
2018-11-02T09:15:16.631Z,11.20
2018-11-02T09:17:44.482Z,11.30
2018-11-02T09:20:12.216Z,11.30
2018-11-02T09:22:39.917Z,11.30
2018-11-02T09:25:08.311Z,11.40
2018-11-02T09:27:35.983Z,11.40
2018-11-02T09:30:04.530Z,11.50
2018-11-02T09:32:32.063Z,11.60
2018-11-02T09:34:59.861Z,11.60
2018-11-02T09:37:27.554Z,11.70
2018-11-02T09:39:55.248Z,11.70
2018-11-02T09:42:23.143Z,11.80
2018-11-02T09:44:50.643Z,11.80
2018-11-02T09:47:18.359Z,11.90
2018-11-02T09:49:46.352Z,11.90
2018-11-02T09:52:14.107Z,11.90
2018-11-02T09:54:41.806Z,12.00
2018-11-02T09:57:11.874Z,12.00
2018-11-02T09:59:39.750Z,12.00
2018-11-02T10:02:07.624Z,12.00
2018-11-02T10:04:35.293Z,12.00
2018-11-02T10:07:02.914Z,12.00
2018-11-02T10:09:30.674Z,12.00
2018-11-02T10:11:58.498Z,12.00
2018-11-02T10:14:26.141Z,12.10
2018-11-02T10:16:53.819Z,12.10
2018-11-02T10:19:21.417Z,12.20
2018-11-02T10:21:49.039Z,12.20
2018-11-02T10:24:16.607Z,12.30
2018-11-02T10:26:44.219Z,12.30
2018-11-02T10:29:11.955Z,12.40
2018-11-02T10:31:40.191Z,12.40
2018-11-02T10:34:07.791Z,12.40
2018-11-02T10:36:36.198Z,12.40
2018-11-02T10:39:06.519Z,12.40
2018-11-02T10:41:39.436Z,12.50
2018-11-02T10:44:07.554Z,12.50
2018-11-02T10:46:35.258Z,12.50
2018-11-02T10:49:03.463Z,12.50
2018-11-02T10:51:31.320Z,12.50
2018-11-02T10:53:58.924Z,12.50
2018-11-02T10:56:26.576Z,12.60
2018-11-02T10:58:54.156Z,12.50
2018-11-02T11:01:27.367Z,12.60
2018-11-02T11:03:55.135Z,12.60
2018-11-02T11:06:22.685Z,12.70
2018-11-02T11:08:50.378Z,12.60
2018-11-02T11:11:18.327Z,12.60
2018-11-02T11:13:46.544Z,12.50
2018-11-02T11:16:14.401Z,12.50
2018-11-02T11:18:42.452Z,12.40
2018-11-02T11:21:10.122Z,12.40
2018-11-02T11:23:37.661Z,12.30
2018-11-02T11:26:05.741Z,12.40
2018-11-02T11:28:33.416Z,12.50
2018-11-02T11:31:01.050Z,12.70
2018-11-02T11:33:28.605Z,12.80
2018-11-02T11:35:56.728Z,12.90
2018-11-02T11:38:24.331Z,12.90
2018-11-02T11:40:51.936Z,12.80
2018-11-02T11:43:19.822Z,12.80
2018-11-02T11:45:47.501Z,12.70
2018-11-02T11:48:15.136Z,12.60
2018-11-02T11:50:42.735Z,12.50
2018-11-02T11:53:10.391Z,12.40
2018-11-02T11:55:38.051Z,12.40
2018-11-02T11:58:06.019Z,12.40
2018-11-02T12:00:33.589Z,12.40
2018-11-02T12:03:01.358Z,12.40
2018-11-02T12:05:28.966Z,12.40
2018-11-02T12:07:56.587Z,12.40
2018-11-02T12:10:24.750Z,12.30
2018-11-02T12:12:52.952Z,12.40
2018-11-02T12:15:21.560Z,12.40
2018-11-02T12:17:49.889Z,12.40
2018-11-02T12:20:22.013Z,12.40
2018-11-02T12:22:50.961Z,12.50
2018-11-02T12:25:18.813Z,12.50
2018-11-02T12:27:46.660Z,12.60
2018-11-02T12:30:15.646Z,12.60
2018-11-02T12:32:43.456Z,12.70
2018-11-02T12:35:12.318Z,12.70
2018-11-02T12:37:39.966Z,12.70
2018-11-02T12:40:21.098Z,12.70
2018-11-02T12:42:59.420Z,12.80
2018-11-02T12:45:27.147Z,12.80
2018-11-02T12:47:54.757Z,12.90
2018-11-02T12:50:24.865Z,12.90
2018-11-02T12:52:53.446Z,12.80
2018-11-02T12:55:21.669Z,12.80
2018-11-02T12:57:49.323Z,12.80
2018-11-02T13:00:19.044Z,12.70
2018-11-02T13:02:47.290Z,12.70
2018-11-02T13:05:14.859Z,12.70
2018-11-02T13:07:42.619Z,12.70
2018-11-02T13:10:11.766Z,12.70
2018-11-02T13:12:39.499Z,12.60
2018-11-02T13:15:10.151Z,12.60
2018-11-02T13:17:38.076Z,12.50
2018-11-02T13:20:06.136Z,12.50
2018-11-02T13:22:33.997Z,12.50
2018-11-02T13:25:01.733Z,12.40
2018-11-02T13:27:29.395Z,12.40
2018-11-02T13:30:12.304Z,12.40
2018-11-02T13:32:40.028Z,12.40
2018-11-02T13:35:09.616Z,12.40
2018-11-02T13:37:37.190Z,12.40
2018-11-02T13:40:06.473Z,12.30
2018-11-02T13:42:34.444Z,12.30
2018-11-02T13:45:02.071Z,12.30
2018-11-02T13:47:29.837Z,12.30
2018-11-02T13:49:57.458Z,12.30
2018-11-02T13:52:25.032Z,12.30
2018-11-02T13:54:52.583Z,12.30
2018-11-02T13:57:20.335Z,12.40
2018-11-02T13:59:47.970Z,12.40
2018-11-02T14:02:15.643Z,12.40
2018-11-02T14:04:43.275Z,12.50
2018-11-02T14:07:11.034Z,12.50
2018-11-02T14:09:38.863Z,12.50
2018-11-02T14:12:06.683Z,12.50
2018-11-02T14:14:34.383Z,12.50
2018-11-02T14:17:02.214Z,12.40
2018-11-02T14:19:29.936Z,12.40
2018-11-02T14:21:57.561Z,12.40
2018-11-02T14:24:25.125Z,12.30
2018-11-02T14:26:52.973Z,12.20
2018-11-02T14:29:20.568Z,12.20
2018-11-02T14:31:48.378Z,12.20
2018-11-02T14:34:16.260Z,12.10
2018-11-02T14:36:44.458Z,12.10
2018-11-02T14:39:13.479Z,12.10
2018-11-02T14:41:42.007Z,12.10
2018-11-02T14:44:10.310Z,12.00
2018-11-02T14:46:38.569Z,12.00
2018-11-02T14:49:06.499Z,12.00
2018-11-02T14:51:34.366Z,12.00
2018-11-02T14:54:02.326Z,12.00
2018-11-02T14:56:30.402Z,11.90
2018-11-02T14:58:58.241Z,11.90
2018-11-02T15:01:26.290Z,11.80
2018-11-02T15:03:53.898Z,11.80
2018-11-02T15:06:21.604Z,11.80
2018-11-02T15:08:49.246Z,11.80
2018-11-02T15:11:17.142Z,11.70
2018-11-02T15:13:44.914Z,11.70
2018-11-02T15:16:12.588Z,11.60
2018-11-02T15:18:40.130Z,11.60
2018-11-02T15:21:07.742Z,11.60
2018-11-02T15:23:35.383Z,11.60
2018-11-02T15:26:03.161Z,11.50
2018-11-02T15:28:30.772Z,11.50
2018-11-02T15:30:58.349Z,11.50
2018-11-02T15:33:26.081Z,11.50
2018-11-02T15:35:53.632Z,11.40
2018-11-02T15:38:21.285Z,11.40
2018-11-02T15:40:48.866Z,11.40
2018-11-02T15:43:16.527Z,11.30
2018-11-02T15:45:44.246Z,11.30
2018-11-02T15:48:12.006Z,11.30
2018-11-02T15:50:39.596Z,11.30
2018-11-02T15:53:07.349Z,11.20
2018-11-02T15:55:34.861Z,11.20
2018-11-02T15:58:02.717Z,11.20
2018-11-02T16:00:30.416Z,11.20
2018-11-02T16:02:58.498Z,11.20
2018-11-02T16:05:26.044Z,11.10
2018-11-02T16:07:53.606Z,11.10
2018-11-02T16:10:21.179Z,11.10
2018-11-02T16:12:48.739Z,11.10
2018-11-02T16:15:16.798Z,11.00
2018-11-02T16:17:44.400Z,11.00
2018-11-02T16:20:13.536Z,11.00
2018-11-02T16:22:41.466Z,10.90
2018-11-02T16:25:09.174Z,10.90
2018-11-02T16:27:36.828Z,10.80
2018-11-02T16:30:04.789Z,10.80
2018-11-02T16:32:33.022Z,10.80
2018-11-02T16:35:00.749Z,10.80
2018-11-02T16:37:28.312Z,10.70
2018-11-02T16:39:56.249Z,10.70
2018-11-02T16:42:24.292Z,10.70
2018-11-02T16:44:51.911Z,10.70
2018-11-02T16:47:20.133Z,10.60
2018-11-02T16:49:57.204Z,10.60
2018-11-02T16:52:57.532Z,10.60
2018-11-02T16:55:30.340Z,10.60
2018-11-02T16:57:58.064Z,10.50
2018-11-02T17:00:25.483Z,10.50
2018-11-02T17:02:53.147Z,10.50
2018-11-02T17:05:20.702Z,10.40
2018-11-02T17:07:48.275Z,10.40
2018-11-02T17:10:15.843Z,10.40
2018-11-02T17:12:44.179Z,10.30
2018-11-02T17:15:12.623Z,10.30
2018-11-02T17:17:40.315Z,10.30
2018-11-02T17:20:10.783Z,10.20
2018-11-02T17:22:38.447Z,10.20
2018-11-02T17:25:06.479Z,10.10
2018-11-02T17:27:34.202Z,10.10
2018-11-02T17:30:01.731Z,10.10
2018-11-02T17:32:29.498Z,10.00
2018-11-02T17:34:57.076Z,10.00
2018-11-02T17:37:24.797Z,9.90
2018-11-02T17:39:52.338Z,9.90
2018-11-02T17:42:19.927Z,9.90
2018-11-02T17:44:47.672Z,9.80
2018-11-02T17:47:15.216Z,10.00
2018-11-02T17:49:42.807Z,9.90
2018-11-02T17:52:10.611Z,9.90
2018-11-02T17:54:38.330Z,9.90
2018-11-02T17:57:06.286Z,9.80
2018-11-02T17:59:34.309Z,9.80
2018-11-02T18:02:01.819Z,9.80
2018-11-02T18:04:29.379Z,9.80
2018-11-02T18:06:57.440Z,9.80
2018-11-02T18:09:25.095Z,9.70
2018-11-02T18:11:53.390Z,9.70
2018-11-02T18:14:20.977Z,9.70
2018-11-02T18:16:48.480Z,9.70
2018-11-02T18:19:16.067Z,9.70
2018-11-02T18:21:43.648Z,9.60
2018-11-02T18:24:11.303Z,9.60
2018-11-02T18:26:38.815Z,9.60
2018-11-02T18:29:06.665Z,9.60
2018-11-02T18:31:34.383Z,9.60
2018-11-02T18:34:02.092Z,9.60
2018-11-02T18:36:52.780Z,9.60
2018-11-02T18:39:20.383Z,9.60
2018-11-02T18:41:48.231Z,9.60
2018-11-02T18:44:15.903Z,9.60
2018-11-02T18:46:43.558Z,9.60
2018-11-02T18:49:11.729Z,9.60
2018-11-02T18:51:40.253Z,9.50
2018-11-02T18:54:08.395Z,9.50
2018-11-02T18:56:36.111Z,9.50
2018-11-02T18:59:04.452Z,9.50
2018-11-02T19:01:31.985Z,9.50
2018-11-02T19:03:59.621Z,9.40
2018-11-02T19:06:27.253Z,9.40
2018-11-02T19:08:54.822Z,9.30
2018-11-02T19:11:22.449Z,9.30
2018-11-02T19:13:50.014Z,9.20
2018-11-02T19:16:17.551Z,9.20
2018-11-02T19:18:45.116Z,9.20
2018-11-02T19:21:13.383Z,9.10
2018-11-02T19:23:40.907Z,9.10
2018-11-02T19:26:08.519Z,9.00
2018-11-02T19:28:36.041Z,8.90
2018-11-02T19:31:03.793Z,8.90
2018-11-02T19:33:31.501Z,8.90
2018-11-02T19:35:59.237Z,8.80
2018-11-02T19:38:27.420Z,8.80
2018-11-02T19:40:54.924Z,8.70
2018-11-02T19:43:22.575Z,8.70
2018-11-02T19:45:50.156Z,8.60
2018-11-02T19:48:17.694Z,8.60
2018-11-02T19:50:45.581Z,8.50
2018-11-02T19:53:13.263Z,8.50
2018-11-02T19:55:41.039Z,8.40
2018-11-02T19:58:08.718Z,8.40
2018-11-02T20:00:36.463Z,8.30
2018-11-02T20:03:04.868Z,8.30
2018-11-02T20:05:32.666Z,8.20
2018-11-02T20:08:00.375Z,8.20
2018-11-02T20:10:27.977Z,8.20
2018-11-02T20:12:55.571Z,8.10
2018-11-02T20:15:23.433Z,8.10
2018-11-02T20:17:51.112Z,8.10
2018-11-02T20:20:18.945Z,8.00
2018-11-02T20:22:46.588Z,8.00
2018-11-02T20:25:15.708Z,7.90
2018-11-02T20:27:43.615Z,7.90
2018-11-02T20:30:13.245Z,7.90
2018-11-02T20:32:41.277Z,7.80
2018-11-02T20:35:09.436Z,7.80
2018-11-02T20:37:37.981Z,7.70
2018-11-02T20:40:07.667Z,7.70
2018-11-02T20:42:35.367Z,7.70
2018-11-02T20:45:03.143Z,7.60
2018-11-02T20:47:36.365Z,7.60
2018-11-02T20:50:05.025Z,7.50
2018-11-02T20:52:32.575Z,7.50
2018-11-02T20:55:00.118Z,7.50
2018-11-02T20:57:28.047Z,7.40
2018-11-02T20:59:55.683Z,7.40
2018-11-02T21:02:23.375Z,7.30
2018-11-02T21:04:50.935Z,7.30
2018-11-02T21:07:19.071Z,7.30
2018-11-02T21:09:46.705Z,7.20
2018-11-02T21:12:14.662Z,7.20
2018-11-02T21:14:42.652Z,7.20
2018-11-02T21:17:10.224Z,7.10
2018-11-02T21:19:37.915Z,7.10
2018-11-02T21:22:09.726Z,7.00
2018-11-02T21:24:37.272Z,7.00
2018-11-02T21:27:05.767Z,6.90
2018-11-02T21:29:33.402Z,6.90
2018-11-02T21:32:01.330Z,6.80
2018-11-02T21:34:28.986Z,6.80
2018-11-02T21:36:56.899Z,6.80
2018-11-02T21:39:24.438Z,6.70
2018-11-02T21:41:51.982Z,6.70
2018-11-02T21:44:19.745Z,6.60
2018-11-02T21:46:47.292Z,6.60
2018-11-02T21:49:15.170Z,6.60
2018-11-02T21:51:42.979Z,6.50
2018-11-02T21:54:11.063Z,6.50
2018-11-02T21:56:39.041Z,6.40
2018-11-02T21:59:06.953Z,6.40
2018-11-02T22:01:34.566Z,6.30
2018-11-02T22:04:02.106Z,6.30
2018-11-02T22:06:29.715Z,6.30
2018-11-02T22:08:57.318Z,6.20
2018-11-02T22:11:25.111Z,6.20
2018-11-02T22:13:52.686Z,6.20
2018-11-02T22:16:20.426Z,6.10
2018-11-02T22:18:48.065Z,6.10
2018-11-02T22:21:15.620Z,6.00
2018-11-02T22:23:43.184Z,6.00
2018-11-02T22:26:10.768Z,6.00
2018-11-02T22:28:38.384Z,5.90
2018-11-02T22:31:06.300Z,5.90
2018-11-02T22:33:34.060Z,5.80
2018-11-02T22:36:01.636Z,5.80
2018-11-02T22:38:29.256Z,5.80
2018-11-02T22:40:56.803Z,5.70
2018-11-02T22:43:24.526Z,5.70
2018-11-02T22:45:52.297Z,5.70
2018-11-02T22:48:23.728Z,5.60
2018-11-02T22:50:52.208Z,5.60
2018-11-02T22:53:19.975Z,5.60
2018-11-02T22:55:47.681Z,5.50
2018-11-02T22:58:15.349Z,5.50
2018-11-02T23:00:49.303Z,5.50
2018-11-02T23:03:16.920Z,5.40
2018-11-02T23:05:44.823Z,5.40
2018-11-02T23:08:12.905Z,5.40
2018-11-02T23:10:40.563Z,5.40
2018-11-02T23:13:08.116Z,5.30
2018-11-02T23:15:35.718Z,5.30
2018-11-02T23:18:03.497Z,5.30
2018-11-02T23:20:31.035Z,5.20
2018-11-02T23:22:58.750Z,5.20
2018-11-02T23:25:26.347Z,5.20
2018-11-02T23:27:53.967Z,5.20
2018-11-02T23:30:21.483Z,5.10
2018-11-02T23:32:49.078Z,5.10
2018-11-02T23:35:16.699Z,5.10
2018-11-02T23:37:44.386Z,5.00
2018-11-02T23:40:12.662Z,5.10
2018-11-02T23:42:40.332Z,5.10
2018-11-02T23:45:08.975Z,5.00
2018-11-02T23:47:36.582Z,5.00
2018-11-02T23:50:06.089Z,5.00
2018-11-02T23:52:33.641Z,5.00
2018-11-02T23:55:01.267Z,5.00
2018-11-02T23:57:28.819Z,4.90
2018-11-02T23:59:56.459Z,4.90
